LHPR/QGY METAR and TAF weather

Enter ICAO airport designator
Station Type Date Time Source
LHPR METAR 2019/06/20 07:15 UTC NOAA

LHPR 200715Z 15007KT 110V190 9999 SCT013 BKN200 22/18 Q1012


Station Type Date Time Source
LHPR Decoded METAR 2019/06/20 07:15 UTC NOAA

Station name not available
Jun 20, 2019 - 03:15 AM EDT / 2019.06.20 0715 UTC
Wind: from the SSE (150 degrees) at 8 MPH (7 KT) (direction variable):0
Visibility: greater than 7 mile(s):0
Sky conditions: mostly cloudy
Temperature: 71 F (22 C)
Dew Point: 64 F (18 C)
Relative Humidity: 78%
Pressure (altimeter): 29.88 in. Hg (1012 hPa)
ob: LHPR 200715Z 15007KT 110V190 9999 SCT013 BKN200 22/18 Q1012
cycle: 7

Station Type Date Time Source
LHPR TAF UTC NOAA

Error!

Example: see airport list